Time;durP1;ratioP1;P1;durP2;ratioP2;P2;SDS_P1;SDS_P2;PMS_P1;PMS_P2;Temp;Humidity;BMP_temperature;BMP_pressure;BME280_temperature;BME280_humidity;BME280_pressure;Samples;Min_cycle;Max_cycle;Signal;HPM_P1;HPM_P2
2022/09/02 00:02:16;;;;;;;5.57;2.47;;;;;;;15.23;100.00;101865.56;7377248;19;20038;-72
2022/09/02 00:04:46;;;;;;;4.82;2.33;;;;;;;15.16;100.00;101859.34;7377934;19;20444;-73
2022/09/02 00:07:16;;;;;;;5.82;2.63;;;;;;;15.14;100.00;101857.53;7378153;19;21543;-73
2022/09/02 00:09:48;;;;;;;4.07;2.25;;;;;;;15.10;100.00;101866.31;7378819;19;20014;-73
2022/09/02 00:12:18;;;;;;;6.00;2.67;;;;;;;15.06;100.00;101862.75;7380827;19;20089;-73
2022/09/02 00:14:48;;;;;;;4.43;2.30;;;;;;;15.01;100.00;101869.72;7376531;19;20483;-73
2022/09/02 00:17:18;;;;;;;5.22;2.67;;;;;;;14.94;100.00;101859.97;7378641;19;20557;-73
2022/09/02 00:19:48;;;;;;;3.75;2.55;;;;;;;14.87;100.00;101859.00;7377386;19;20548;-73
2022/09/02 00:22:24;;;;;;;3.95;2.60;;;;;;;14.82;100.00;101849.25;7377574;19;20014;-73
2022/09/02 00:24:57;;;;;;;5.57;2.60;;;;;;;14.75;100.00;101850.94;7378092;19;20114;-73
2022/09/02 00:27:27;;;;;;;4.13;2.55;;;;;;;14.68;100.00;101855.25;7379023;19;20036;-73
2022/09/02 00:29:59;;;;;;;3.88;2.40;;;;;;;14.60;100.00;101850.75;7377606;19;20113;-73
2022/09/02 00:32:35;;;;;;;4.72;2.58;;;;;;;14.51;100.00;101848.91;7379385;19;20007;-73
2022/09/02 00:35:08;;;;;;;4.85;2.58;;;;;;;14.46;100.00;101845.31;7375389;19;20025;-73
2022/09/02 00:37:39;;;;;;;4.40;2.50;;;;;;;14.39;100.00;101849.59;7377247;19;20022;-72
2022/09/02 00:40:13;;;;;;;3.47;2.70;;;;;;;14.33;100.00;101844.22;7378282;19;20694;-73
2022/09/02 00:42:43;;;;;;;7.28;2.67;;;;;;;14.27;100.00;101835.34;7379108;19;20044;-73
2022/09/02 00:45:14;;;;;;;4.35;2.67;;;;;;;14.25;100.00;101831.78;7375358;19;20010;-72
2022/09/02 00:47:44;;;;;;;3.67;2.53;;;;;;;14.22;100.00;101840.56;7379494;19;20063;-73
2022/09/02 00:50:18;;;;;;;4.28;2.47;;;;;;;14.18;100.00;101837.84;7380382;19;20003;-72
2022/09/02 00:52:55;;;;;;;4.28;2.72;;;;;;;14.11;100.00;101838.63;7377642;19;20014;-73
2022/09/02 00:55:31;;;;;;;6.00;2.80;;;;;;;14.10;100.00;101834.22;7373753;19;20006;-73
2022/09/02 00:58:12;;;;;;;3.70;2.50;;;;;;;14.06;100.00;101830.63;7378210;19;20006;-73
2022/09/02 01:00:46;;;;;;;5.43;2.22;;;;;;;14.01;100.00;101841.13;7381014;19;20006;-73
2022/09/02 01:03:18;;;;;;;;;;;;;;;13.97;100.00;101831.38;7381567;19;20035;-73
2022/09/02 01:05:51;;;;;;;4.18;2.60;;;;;;;13.94;100.00;101830.47;7386334;19;20306;-72
2022/09/02 01:08:25;;;;;;;2.75;2.30;;;;;;;13.89;100.00;101825.09;7384924;19;20086;-73
2022/09/02 01:11:05;;;;;;;5.32;2.47;;;;;;;13.86;100.00;101827.69;7389165;19;20530;-73
2022/09/02 01:13:43;;;;;;;5.88;2.60;;;;;;;13.84;100.00;101824.16;7386731;19;20011;-72
2022/09/02 01:16:18;;;;;;;4.95;2.60;;;;;;;13.82;100.00;101825.88;7373423;19;20471;-72
2022/09/02 01:18:53;;;;;;;3.67;2.58;;;;;;;13.81;100.00;101817.94;7375353;19;20049;-73
2022/09/02 01:21:24;;;;;;;4.50;2.80;;;;;;;13.79;100.00;101825.84;7373808;19;20018;-72
2022/09/02 01:24:01;;;;;;;4.25;2.50;;;;;;;13.80;100.00;101821.44;7376244;19;20011;-73
2022/09/02 01:26:38;;;;;;;3.55;2.35;;;;;;;13.78;100.00;101820.53;7376485;19;20014;-74
2022/09/02 01:29:09;;;;;;;4.03;2.63;;;;;;;13.77;100.00;101817.00;7374931;19;20003;-73
2022/09/02 01:31:39;;;;;;;6.40;2.65;;;;;;;13.74;100.00;101815.22;7375711;19;20015;-73
2022/09/02 01:34:12;;;;;;;2.78;2.28;;;;;;;13.71;100.00;101817.78;7373289;19;20027;-73
2022/09/02 01:36:44;;;;;;;4.30;2.30;;;;;;;13.68;100.00;101811.59;7375725;19;20018;-73
2022/09/02 01:39:17;;;;;;;3.85;2.40;;;;;;;13.65;100.00;101808.91;7375827;19;20024;-75
2022/09/02 01:41:47;;;;;;;4.80;2.90;;;;;;;13.61;100.00;101807.97;7374889;19;20026;-75
2022/09/02 01:44:17;;;;;;;4.32;2.38;;;;;;;13.58;100.00;101810.56;7373904;19;20021;-75
2022/09/02 01:46:47;;;;;;;4.07;2.30;;;;;;;13.54;100.00;101807.84;7373161;19;20162;-73
2022/09/02 01:49:17;;;;;;;3.17;2.40;;;;;;;13.50;100.00;101806.94;7375624;19;20011;-74
2022/09/02 01:51:47;;;;;;;4.43;2.70;;;;;;;13.49;100.00;101801.66;7371629;19;20457;-73
2022/09/02 01:54:21;;;;;;;4.38;2.47;;;;;;;13.47;100.00;101806.88;7374965;19;20023;-73
2022/09/02 01:56:50;;;;;;;4.43;2.45;;;;;;;13.47;100.00;101803.38;7381164;19;20043;-73
2022/09/02 01:59:21;;;;;;;4.90;2.65;;;;;;;13.47;100.00;101800.72;7380345;19;20482;-74
2022/09/02 02:01:51;;;;;;;4.00;2.45;;;;;;;13.44;100.00;101800.69;7384628;19;20096;-73
2022/09/02 02:04:23;;;;;;;5.57;2.55;;;;;;;13.41;100.00;101790.97;7380280;19;20021;-73
2022/09/02 02:06:54;;;;;;;6.28;2.88;;;;;;;13.42;100.00;101795.38;7385963;19;20031;-73
2022/09/02 02:09:27;;;;;;;5.75;2.78;;;;;;;13.38;100.00;101794.44;7382117;19;20098;-73
2022/09/02 02:12:00;;;;;;;4.03;3.00;;;;;;;13.36;100.00;101792.63;7384461;19;20007;-73
2022/09/02 02:14:32;;;;;;;4.20;2.60;;;;;;;13.33;100.00;101795.22;7382076;19;20049;-73
2022/09/02 02:17:05;;;;;;;7.32;2.65;;;;;;;13.31;100.00;101789.03;7382817;19;20002;-73
2022/09/02 02:19:42;;;;;;;3.85;2.40;;;;;;;13.30;100.00;101793.41;7382840;19;20018;-73
2022/09/02 02:22:14;;;;;;;5.43;2.75;;;;;;;13.28;100.00;101789.00;7377750;19;20288;-73
2022/09/02 02:24:47;;;;;;;5.63;3.00;;;;;;;13.25;100.00;101795.09;7381435;19;20010;-73
2022/09/02 02:27:17;;;;;;;3.97;2.20;;;;;;;13.24;100.00;101797.69;7378366;19;20039;-73
2022/09/02 02:29:47;;;;;;;4.85;2.60;;;;;;;13.20;100.00;101786.22;7376084;19;20611;-73
2022/09/02 02:32:18;;;;;;;5.03;3.03;;;;;;;13.21;100.00;101788.00;7376131;19;20043;-73
2022/09/02 02:34:48;;;;;;;4.07;2.80;;;;;;;13.21;100.00;101787.09;7381910;19;20295;-72
2022/09/02 02:37:20;;;;;;;3.63;2.75;;;;;;;13.18;100.00;101782.66;7376617;19;20007;-73
2022/09/02 02:39:56;;;;;;;3.53;2.65;;;;;;;13.18;100.00;101781.78;7380219;19;20354;-72
2022/09/02 02:42:27;;;;;;;5.28;2.90;;;;;;;13.18;100.00;101787.94;7371719;19;20542;-73
2022/09/02 02:44:57;;;;;;;4.75;2.85;;;;;;;13.15;100.00;101772.03;7380590;19;20466;-73
2022/09/02 02:47:30;;;;;;;4.45;3.20;;;;;;;13.14;100.00;101778.19;7378175;19;20029;-73
2022/09/02 02:50:01;;;;;;;5.43;3.10;;;;;;;13.12;100.00;101785.16;7377541;19;20003;-74
2022/09/02 02:52:31;;;;;;;4.78;2.72;;;;;;;13.12;100.00;101777.25;7375913;19;20271;-76
2022/09/02 02:55:05;;;;;;;4.07;2.65;;;;;;;13.08;100.00;101778.06;7378229;19;20130;-75
2022/09/02 02:57:37;;;;;;;4.97;2.85;;;;;;;13.06;100.00;101777.16;7376983;19;20015;-76
2022/09/02 03:00:13;;;;;;;7.03;2.88;;;;;;;13.04;100.00;101777.13;7378748;19;20296;-76
2022/09/02 03:02:44;;;;;;;4.60;2.75;;;;;;;13.03;100.00;101766.56;7377387;19;20101;-74
2022/09/02 03:05:15;;;;;;;5.68;2.78;;;;;;;13.00;100.00;101769.13;7378536;19;20482;-74
2022/09/02 03:07:45;;;;;;;4.03;2.58;;;;;;;12.99;100.00;101767.38;7378583;19;20301;-74
2022/09/02 03:10:18;;;;;;;2.90;2.55;;;;;;;12.98;100.00;101769.13;7380848;19;20014;-74
2022/09/02 03:12:48;;;;;;;3.87;2.60;;;;;;;12.97;100.00;101766.44;7380972;19;20015;-74
2022/09/02 03:15:19;;;;;;;2.63;2.30;;;;;;;12.94;100.00;101761.13;7380727;19;20014;-74
2022/09/02 03:17:50;;;;;;;2.75;2.20;;;;;;;12.94;100.00;101769.03;7382091;19;20022;-74
2022/09/02 03:20:20;;;;;;;12.20;3.08;;;;;;;12.93;100.00;101764.63;7381923;19;20019;-74
2022/09/02 03:22:53;;;;;;;6.65;2.80;;;;;;;12.89;100.00;101763.69;7381985;19;20234;-74
2022/09/02 03:25:25;;;;;;;4.13;2.42;;;;;;;12.88;100.00;101766.28;7380300;19;20039;-74
2022/09/02 03:28:00;;;;;;;8.23;3.30;;;;;;;12.89;100.00;101770.69;7383821;19;20015;-74
2022/09/02 03:30:35;;;;;;;4.55;2.90;;;;;;;12.86;100.00;101768.88;7382319;19;20018;-73
2022/09/02 03:33:08;;;;;;;4.50;2.88;;;;;;;12.86;100.00;101768.00;7382109;19;20070;-73
2022/09/02 03:35:43;;;;;;;4.82;2.72;;;;;;;12.84;100.00;101764.44;7384532;19;20003;-73
2022/09/02 03:38:13;;;;;;;3.80;2.58;;;;;;;12.83;100.00;101757.41;7386372;19;20017;-73
2022/09/02 03:40:46;;;;;;;4.22;2.67;;;;;;;12.82;100.00;101760.91;7385628;19;20031;-72
2022/09/02 03:43:16;;;;;;;4.32;2.65;;;;;;;12.81;100.00;101759.13;7383166;19;20007;-72
2022/09/02 03:45:46;;;;;;;2.58;2.28;;;;;;;12.79;100.00;101767.00;7382085;19;20015;-73
2022/09/02 03:48:16;;;;;;;5.70;2.88;;;;;;;12.81;100.00;101760.00;7382436;19;20078;-72
2022/09/02 03:50:49;;;;;;;4.40;2.60;;;;;;;12.80;100.00;101746.81;7384028;19;20342;-73
2022/09/02 03:53:20;;;;;;;4.30;2.55;;;;;;;12.76;100.00;101752.03;7380125;19;20124;-73
2022/09/02 03:55:53;;;;;;;4.82;2.53;;;;;;;12.76;100.00;101748.50;7380775;19;20010;-72
2022/09/02 03:58:23;;;;;;;4.70;2.67;;;;;;;12.76;100.00;101752.03;7380083;19;20007;-74
2022/09/02 04:00:55;;;;;;;4.97;2.78;;;;;;;12.76;100.00;101746.75;7380867;19;20003;-75
2022/09/02 04:03:26;;;;;;;3.97;2.42;;;;;;;12.75;100.00;101742.34;7380140;19;20331;-75
2022/09/02 04:05:57;;;;;;;2.97;2.47;;;;;;;12.76;100.00;101740.63;7382493;19;20010;-74
2022/09/02 04:08:27;;;;;;;5.53;2.75;;;;;;;12.75;100.00;101739.72;7380637;19;20014;-75
2022/09/02 04:11:00;;;;;;;4.95;2.65;;;;;;;12.76;100.00;101740.63;7380496;19;20023;-76
2022/09/02 04:13:30;;;;;;;4.32;2.58;;;;;;;12.75;100.00;101739.72;7384324;19;20014;-76
2022/09/02 04:16:01;;;;;;;5.45;3.35;;;;;;;12.75;100.00;101736.22;7379924;19;20006;-75
2022/09/02 04:18:32;;;;;;;5.20;2.78;;;;;;;12.77;100.00;101732.75;7386462;19;20467;-76
2022/09/02 04:21:05;;;;;;;4.38;2.60;;;;;;;12.77;100.00;101732.75;7385141;19;20014;-75
2022/09/02 04:23:35;;;;;;;5.00;2.78;;;;;;;12.79;100.00;101735.41;7388587;19;20027;-73
2022/09/02 04:26:10;;;;;;;4.78;3.03;;;;;;;12.80;100.00;101731.03;7388604;19;20106;-73
2022/09/02 04:28:41;;;;;;;4.78;2.97;;;;;;;12.80;100.00;101725.75;7386424;19;20014;-73
2022/09/02 04:31:13;;;;;;;5.15;2.83;;;;;;;12.81;100.00;101724.91;7384438;19;20015;-73
2022/09/02 04:33:43;;;;;;;4.72;2.90;;;;;;;12.82;100.00;101729.31;7379541;19;20002;-75
2022/09/02 04:36:16;;;;;;;5.75;2.92;;;;;;;12.84;100.00;101722.34;7377386;19;20010;-75
2022/09/02 04:38:46;;;;;;;5.90;2.73;;;;;;;12.84;100.00;101722.34;7377297;19;20027;-76
2022/09/02 04:41:21;;;;;;;4.80;2.65;;;;;;;12.86;100.00;101715.34;7379536;19;20006;-74
2022/09/02 04:43:52;;;;;;;5.82;2.97;;;;;;;12.85;100.00;101714.47;7377238;19;20011;-74
2022/09/02 04:46:22;;;;;;;4.65;2.88;;;;;;;12.86;100.00;101713.59;7378429;19;20082;-74
2022/09/02 04:49:06;;;;;;;4.93;2.90;;;;;;;12.88;100.00;101713.63;7373357;19;20011;-74
2022/09/02 04:51:45;;;;;;;5.25;2.80;;;;;;;12.89;100.00;101712.78;7373036;19;20047;-74
2022/09/02 04:54:15;;;;;;;4.65;2.80;;;;;;;12.89;100.00;101711.03;7369736;19;20046;-74
2022/09/02 04:56:47;;;;;;;5.03;2.55;;;;;;;12.90;100.00;101711.91;7374687;19;20491;-74
2022/09/02 04:59:19;;;;;;;5.80;2.90;;;;;;;12.89;100.00;101716.28;7372808;19;20780;-75
2022/09/02 05:01:49;;;;;;;5.80;2.60;;;;;;;12.90;100.00;101719.81;7376151;19;20223;-75
2022/09/02 05:04:21;;;;;;;3.60;2.70;;;;;;;12.91;100.00;101718.94;7376759;19;20433;-73
2022/09/02 05:06:52;;;;;;;4.15;2.72;;;;;;;12.91;100.00;101716.31;7377474;19;20515;-75
2022/09/02 05:09:22;;;;;;;5.15;2.53;;;;;;;12.92;100.00;101718.09;7376828;19;20472;-74
2022/09/02 05:12:07;;;;;;;5.18;2.65;;;;;;;12.93;100.00;101714.59;7376655;19;20006;-74
2022/09/02 05:14:39;;;;;;;4.47;2.70;;;;;;;12.92;100.00;101724.25;7374004;19;20605;-72
2022/09/02 05:17:12;;;;;;;6.10;2.85;;;;;;;12.94;100.00;101719.00;7374899;19;20022;-73
2022/09/02 05:19:43;;;;;;;6.40;2.92;;;;;;;12.95;100.00;101720.78;7375997;19;20074;-72
2022/09/02 05:22:13;;;;;;;4.55;2.70;;;;;;;12.97;100.00;101722.56;7374442;19;20451;-72
2022/09/02 05:24:43;;;;;;;5.57;2.97;;;;;;;12.99;100.00;101725.22;7377886;19;20022;-75
2022/09/02 05:27:19;;;;;;;3.58;2.72;;;;;;;12.98;100.00;101719.09;7372796;19;20022;-72
2022/09/02 05:29:50;;;;;;;3.78;2.92;;;;;;;13.02;100.00;101725.28;7379743;19;20297;-73
2022/09/02 05:32:23;;;;;;;4.00;2.55;;;;;;;13.05;100.00;101720.06;7381021;19;20107;-74
2022/09/02 05:34:53;;;;;;;4.97;2.75;;;;;;;13.09;100.00;101730.69;7388019;19;20021;-75
2022/09/02 05:37:23;;;;;;;3.53;2.42;;;;;;;13.10;100.00;101726.31;7380856;19;20026;-75
2022/09/02 05:39:54;;;;;;;6.38;2.88;;;;;;;13.17;100.00;101730.84;7383187;19;20011;-74
2022/09/02 05:42:28;;;;;;;5.22;3.03;;;;;;;13.23;100.00;101722.16;7386578;19;20031;-76
2022/09/02 05:44:58;;;;;;;4.78;3.22;;;;;;;13.31;100.00;101720.53;7385084;19;20147;-75
2022/09/02 05:47:31;;;;;;;5.13;2.83;;;;;;;13.37;100.00;101718.91;7385902;19;20371;-74
2022/09/02 05:50:09;;;;;;;4.72;2.47;;;;;;;13.40;100.00;101720.69;7383361;19;20044;-75
2022/09/02 05:52:47;;;;;;;6.55;3.00;;;;;;;13.41;100.00;101717.19;7385267;19;20014;-75
2022/09/02 05:55:17;;;;;;;4.28;2.60;;;;;;;13.44;100.00;101716.34;7389125;19;20047;-75
2022/09/02 05:57:49;;;;;;;5.82;2.63;;;;;;;13.46;100.00;101707.63;7383583;19;20014;-75
2022/09/02 06:00:19;;;;;;;8.20;3.03;;;;;;;13.56;100.00;101705.97;7386575;19;20489;-77
2022/09/02 06:02:49;;;;;;;7.00;2.95;;;;;;;13.62;100.00;101706.06;7384611;19;20106;-75
2022/09/02 06:05:19;;;;;;;5.97;2.78;;;;;;;13.66;100.00;101703.50;7385332;19;20019;-76
2022/09/02 06:07:49;;;;;;;8.18;3.45;;;;;;;13.77;100.00;101705.38;7382499;19;20047;-76
2022/09/02 06:10:19;;;;;;;4.97;2.75;;;;;;;13.85;100.00;101709.03;7385318;19;20493;-75
2022/09/02 06:12:51;;;;;;;4.50;2.70;;;;;;;13.94;100.00;101707.41;7380378;19;20046;-75
2022/09/02 06:15:21;;;;;;;4.70;2.70;;;;;;;14.11;100.00;101706.72;7382428;19;20035;-76
2022/09/02 06:17:51;;;;;;;6.15;2.70;;;;;;;14.25;100.00;101706.03;7383703;19;20019;-76
2022/09/02 06:20:21;;;;;;;3.63;2.40;;;;;;;14.40;100.00;101711.50;7380382;19;20006;-79
2022/09/02 06:22:51;;;;;;;4.35;2.45;;;;;;;14.54;100.00;101706.41;7382089;19;20003;-74
2022/09/02 06:25:22;;;;;;;6.78;2.78;;;;;;;14.68;100.00;101704.75;7381428;19;20010;-77
2022/09/02 06:27:57;;;;;;;6.53;3.00;;;;;;;14.81;100.00;101702.25;7384085;19;20699;-72
2022/09/02 06:30:27;;;;;;;6.53;3.97;;;;;;;14.97;100.00;101709.44;7382943;19;20007;-76
2022/09/02 06:32:57;;;;;;;8.15;3.20;;;;;;;15.14;100.00;101697.25;7383328;19;20438;-77
2022/09/02 06:35:30;;;;;;;7.75;3.10;;;;;;;15.23;100.00;101696.44;7382961;19;20062;-75
2022/09/02 06:38:02;;;;;;;14.10;6.13;;;;;;;15.40;100.00;101700.09;7379132;19;20129;-72
2022/09/02 06:40:43;;;;;;;5.50;2.95;;;;;;;15.55;100.00;101699.31;7377407;19;20023;-77
2022/09/02 06:43:15;;;;;;;4.07;2.40;;;;;;;15.69;100.00;101706.47;7374392;19;20022;-76
2022/09/02 06:45:51;;;;;;;6.35;2.97;;;;;;;15.67;100.00;101705.56;7381759;19;20014;-79
2022/09/02 06:51:30;;;;;;;5.80;2.97;;;;;;;15.75;100.00;101699.44;7381979;19;20648;-73
2022/09/02 06:54:45;;;;;;;3.20;2.45;;;;;;;15.83;100.00;101703.91;7380956;19;20122;-75
2022/09/02 06:57:15;;;;;;;6.22;2.90;;;;;;;16.05;100.00;101701.38;7383637;19;20023;-76
2022/09/02 06:59:50;;;;;;;5.53;2.95;;;;;;;16.13;100.00;101700.53;7384151;19;20035;-78
2022/09/02 07:02:27;;;;;;;5.03;2.92;;;;;;;16.32;100.00;101690.88;7384396;19;20035;-77
2022/09/02 07:05:14;;;;;;;6.70;3.08;;;;;;;16.35;100.00;101694.44;7387934;19;20446;-74
2022/09/02 07:07:48;;;;;;;6.43;2.90;;;;;;;16.50;100.00;101690.94;7383135;19;20011;-76
2022/09/02 07:10:18;;;;;;;8.25;5.25;;;;;;;16.56;100.00;101683.00;7384632;19;20039;-77
2022/09/02 07:12:48;;;;;;;7.22;3.08;;;;;;;16.61;100.00;101681.25;7382856;19;20347;-76
2022/09/02 07:15:20;;;;;;;6.88;3.20;;;;;;;16.73;100.00;101683.03;7382715;19;20028;-78
2022/09/02 07:18:02;;;;;;;8.02;3.22;;;;;;;16.95;100.00;101681.31;7379125;19;20239;-71
2022/09/02 07:20:37;;;;;;;5.32;3.03;;;;;;;17.05;100.00;101682.19;7380390;19;20330;-77
2022/09/02 07:23:08;;;;;;;5.38;3.90;;;;;;;17.03;100.00;101679.53;7385455;19;20010;-77
2022/09/02 07:25:42;;;;;;;5.25;3.15;;;;;;;17.05;100.00;101680.41;7387994;19;20041;-78
2022/09/02 07:28:17;;;;;;;7.93;3.47;;;;;;;17.32;100.00;101671.56;7380838;19;20007;-74
2022/09/02 07:30:53;;;;;;;6.78;3.33;;;;;;;17.66;100.00;101672.44;7392175;19;20014;-81
2022/09/02 07:33:28;;;;;;;7.10;3.50;;;;;;;17.83;98.53;101662.63;7397016;19;20019;-81
2022/09/02 07:35:58;;;;;;;4.72;3.75;;;;;;;18.03;99.36;101670.50;7399808;19;20006;-82
2022/09/02 07:57:28;;;;;;;7.55;4.30;;;;;;;18.59;96.79;101661.34;7370127;19;20048;-74
2022/09/02 08:00:26;;;;;;;7.38;4.05;;;;;;;18.82;98.16;101664.72;7379436;19;20412;-83
2022/09/02 08:24:32;;;;;;;8.23;4.78;;;;;;;19.42;91.17;101654.44;7373506;19;20017;-82
2022/09/02 08:27:08;;;;;;;8.55;4.60;;;;;;;19.45;90.95;101650.88;7380272;19;20006;-82
2022/09/02 08:29:41;;;;;;;10.93;5.05;;;;;;;19.47;91.19;101649.06;7378447;19;20086;-80
2022/09/02 08:32:41;;;;;;;8.10;4.97;;;;;;;19.44;91.68;101655.31;7382148;19;20122;-74
2022/09/02 08:35:12;;;;;;;8.57;5.00;;;;;;;19.52;90.53;101647.28;7380497;19;20027;-83
2022/09/02 08:37:42;;;;;;;9.18;5.05;;;;;;;19.71;89.24;101646.19;7382977;19;20019;-82
2022/09/02 08:40:19;;;;;;;9.93;4.97;;;;;;;19.88;90.09;101646.81;7383989;19;20036;-79
2022/09/02 08:42:52;;;;;;;6.70;4.75;;;;;;;20.13;87.68;101647.41;7386444;19;20035;-81
2022/09/02 08:45:29;;;;;;;8.63;4.93;;;;;;;20.46;88.80;101640.75;7380872;19;20010;-82
2022/09/02 08:48:07;;;;;;;8.32;5.13;;;;;;;20.62;85.43;101645.84;7379076;19;20053;-79
2022/09/02 08:50:43;;;;;;;9.07;5.32;;;;;;;20.82;85.62;101647.25;7384182;19;20139;-80
2022/09/02 08:53:21;;;;;;;8.50;4.90;;;;;;;20.93;83.79;101640.88;7381039;19;20017;-79
2022/09/02 08:55:57;;;;;;;9.00;4.82;;;;;;;21.08;82.36;101636.16;7382000;19;20136;-80
2022/09/02 08:58:38;;;;;;;9.50;4.85;;;;;;;21.20;84.17;101630.59;7375090;19;20025;-80
2022/09/02 09:01:16;;;;;;;8.77;6.03;;;;;;;20.94;81.59;101631.97;7374804;19;20027;-80
2022/09/02 09:04:09;;;;;;;10.70;5.55;;;;;;;20.87;80.39;101640.06;7373726;19;20006;-82
2022/09/02 09:06:49;;;;;;;8.55;5.38;;;;;;;20.90;80.82;101626.69;7379649;19;20014;-81
2022/09/02 09:09:27;;;;;;;8.20;5.43;;;;;;;21.25;81.29;101632.34;7377254;19;20070;-81
2022/09/02 09:12:14;;;;;;;10.27;5.30;;;;;;;21.30;81.97;101631.34;7379067;19;20014;-81
2022/09/02 09:14:51;;;;;;;11.13;4.82;;;;;;;21.46;79.87;101632.84;7382812;19;20011;-80
2022/09/02 09:17:27;;;;;;;6.97;4.45;;;;;;;21.47;78.88;101639.06;7375833;19;20327;-82
2022/09/02 09:20:05;;;;;;;10.05;5.05;;;;;;;21.25;79.84;101632.34;7376367;19;20048;-80
2022/09/02 09:22:40;;;;;;;8.30;4.93;;;;;;;21.39;80.17;101628.53;7376901;19;20014;-81
2022/09/02 09:25:14;;;;;;;10.77;5.22;;;;;;;21.21;80.42;101626.16;7376839;19;20404;-82
2022/09/02 09:27:48;;;;;;;9.25;5.03;;;;;;;21.22;81.18;101627.94;7382770;19;20015;-82
2022/09/02 09:30:18;;;;;;;8.68;4.78;;;;;;;21.19;81.84;101634.19;7378936;19;20006;-82
2022/09/02 09:32:51;;;;;;;9.98;5.30;;;;;;;21.62;80.62;101622.75;7376840;19;20006;-81
2022/09/02 09:35:21;;;;;;;11.65;5.05;;;;;;;21.75;79.18;101623.38;7376662;19;20365;-80
2022/09/02 09:37:52;;;;;;;9.73;4.80;;;;;;;22.11;79.91;101622.59;7377381;19;20425;-80
2022/09/02 09:40:39;;;;;;;12.10;5.60;;;;;;;21.57;80.16;101613.94;7379801;19;20035;-79
2022/09/02 09:43:18;;;;;;;8.35;4.88;;;;;;;22.24;78.82;101607.16;7377391;19;20018;-80
2022/09/02 09:45:50;;;;;;;8.88;5.47;;;;;;;22.55;77.80;101610.00;7380335;19;20039;-81
2022/09/02 09:48:26;;;;;;;10.18;5.88;;;;;;;22.97;77.14;101602.72;7378051;19;20006;-81
2022/09/02 09:51:17;;;;;;;10.68;5.28;;;;;;;23.14;74.95;101607.63;7378880;19;20056;-82
2022/09/02 09:53:47;;;;;;;13.07;5.40;;;;;;;23.13;75.26;101604.06;7374583;19;20007;-79
2022/09/02 09:56:42;;;;;;;8.63;5.45;;;;;;;23.44;72.60;101598.75;7379384;19;20017;-77
2022/09/02 09:59:41;;;;;;;7.13;5.35;;;;;;;23.69;71.74;101601.66;7375237;19;20010;-79
2022/09/02 10:02:22;;;;;;;10.38;5.10;;;;;;;23.75;70.78;101605.94;7379718;19;20573;-78
2022/09/02 10:04:54;;;;;;;11.65;6.05;;;;;;;23.51;69.99;101599.47;7378798;19;20015;-78
2022/09/02 10:07:41;;;;;;;9.50;5.95;;;;;;;23.54;69.40;101601.22;7376606;19;20015;-79
2022/09/02 10:10:18;;;;;;;8.98;5.53;;;;;;;23.69;69.95;101600.78;7382155;19;20118;-79
2022/09/02 10:12:49;;;;;;;10.40;5.90;;;;;;;23.86;69.72;101597.59;7381751;19;20437;-78
2022/09/02 10:15:39;;;;;;;12.02;5.93;;;;;;;24.25;68.08;101601.72;7383185;19;20011;-78
2022/09/02 10:18:22;;;;;;;11.93;5.45;;;;;;;24.41;66.88;101592.28;7384780;19;20010;-79
2022/09/02 10:21:01;;;;;;;10.00;5.50;;;;;;;24.67;67.43;101599.50;7388469;19;20006;-79
2022/09/02 10:23:52;;;;;;;9.85;5.95;;;;;;;24.23;67.64;101602.69;7386190;19;20271;-79
2022/09/02 10:26:34;;;;;;;13.30;5.93;;;;;;;24.74;66.32;101589.44;7391158;19;20031;-79
2022/09/02 10:29:29;;;;;;;9.20;5.65;;;;;;;24.94;66.16;101597.69;7386849;19;20012;-78
2022/09/02 10:32:23;;;;;;;10.52;6.03;;;;;;;24.98;65.26;101582.34;7387719;19;20114;-72
2022/09/02 10:35:04;;;;;;;7.70;5.45;;;;;;;25.16;63.35;101578.16;7385894;19;20021;-71
2022/09/02 10:37:44;;;;;;;12.63;6.22;;;;;;;25.07;63.52;101576.66;7385523;19;20025;-72
2022/09/02 10:40:16;;;;;;;10.32;5.47;;;;;;;25.31;63.21;101566.84;7384425;19;20018;-72
2022/09/02 10:42:57;;;;;;;11.23;6.10;;;;;;;25.29;62.16;101576.78;7386572;19;20456;-73
2022/09/02 10:45:45;;;;;;;10.18;6.20;;;;;;;25.08;61.67;101573.94;7389255;19;20112;-73
2022/09/02 10:48:33;;;;;;;9.15;5.93;;;;;;;25.31;62.88;101575.78;7389211;19;20046;-73
2022/09/02 10:51:12;;;;;;;8.85;5.00;;;;;;;25.61;61.78;101571.09;7390799;19;20257;-72
2022/09/02 10:53:54;;;;;;;8.27;4.82;;;;;;;25.81;60.83;101564.13;7388929;19;20047;-71
2022/09/02 10:56:28;;;;;;;9.67;5.50;;;;;;;25.92;59.58;101565.47;7392514;19;21120;-71
2022/09/02 10:59:04;;;;;;;8.70;5.50;;;;;;;25.90;58.03;101559.28;7396331;19;20015;-79
2022/09/02 11:01:43;;;;;;;9.98;5.50;;;;;;;25.78;58.16;101561.56;7398617;19;20014;-77
2022/09/02 11:04:23;;;;;;;9.43;5.22;;;;;;;26.08;58.90;101560.31;7393849;19;20018;-80
2022/09/02 11:06:58;;;;;;;9.07;5.60;;;;;;;25.98;58.68;101556.28;7394361;19;20043;-78
2022/09/02 11:09:42;;;;;;;9.20;5.32;;;;;;;26.10;58.18;101558.44;7390894;19;20014;-79
2022/09/02 11:12:18;;;;;;;8.05;5.05;;;;;;;26.24;57.99;101553.41;7392135;19;20027;-78
2022/09/02 11:14:59;;;;;;;11.38;5.35;;;;;;;26.23;57.19;101548.09;7391874;19;20042;-80
2022/09/02 11:17:43;;;;;;;9.80;5.47;;;;;;;26.17;55.69;101557.28;7388411;19;20039;-80
2022/09/02 11:20:29;;;;;;;10.48;5.00;;;;;;;26.23;57.31;101546.28;7386702;19;20486;-79
2022/09/02 11:23:08;;;;;;;9.00;5.32;;;;;;;26.23;56.88;101540.88;7388572;19;20039;-78
2022/09/02 11:25:46;;;;;;;10.65;5.93;;;;;;;25.97;56.54;101544.66;7384074;19;20010;-77
2022/09/02 11:28:30;;;;;;;10.15;6.03;;;;;;;25.92;58.41;101537.72;7385796;19;20002;-77
2022/09/02 11:31:07;;;;;;;10.13;5.35;;;;;;;25.84;57.73;101531.75;7385584;19;20463;-79
2022/09/02 11:33:50;;;;;;;9.23;5.43;;;;;;;26.05;57.77;101526.38;7383224;19;20050;-78
2022/09/02 11:36:24;;;;;;;9.82;5.13;;;;;;;26.06;58.84;101521.88;7384558;19;20014;-79
2022/09/02 11:39:05;;;;;;;8.98;5.32;;;;;;;26.16;56.68;101523.25;7383963;19;20051;-72
2022/09/02 11:42:02;;;;;;;8.32;5.18;;;;;;;26.43;56.84;101523.09;7377988;19;20007;-72
2022/09/02 11:45:05;;;;;;;7.88;4.82;;;;;;;26.50;57.19;101514.69;7381103;19;20040;-72
2022/09/02 11:48:01;;;;;;;10.73;5.47;;;;;;;26.39;57.35;101528.59;7379755;19;20053;-73
2022/09/02 11:51:05;;;;;;;8.68;4.60;;;;;;;26.87;55.35;101519.38;7380913;19;20085;-79
2022/09/02 11:53:43;;;;;;;9.50;5.68;;;;;;;26.47;56.64;101516.66;7382323;19;20041;-78
2022/09/02 11:56:16;;;;;;;8.93;5.13;;;;;;;26.89;55.74;101506.72;7384225;19;20046;-79
2022/09/02 11:58:51;;;;;;;10.77;4.90;;;;;;;27.06;55.12;101510.50;7385403;19;20463;-79
2022/09/02 12:01:30;;;;;;;9.77;4.82;;;;;;;27.00;53.60;101512.53;7381649;19;20013;-81
2022/09/02 12:04:09;;;;;;;8.73;5.32;;;;;;;26.71;54.45;101504.84;7388079;19;20011;-79
2022/09/02 12:07:29;;;;;;;9.07;5.00;;;;;;;26.85;54.21;101498.84;7380576;19;20692;-73
2022/09/02 12:10:05;;;;;;;8.05;4.78;;;;;;;26.84;53.14;101497.09;7380292;19;20101;-73
2022/09/02 12:13:05;;;;;;;11.80;5.55;;;;;;;26.83;52.77;101503.44;7379529;19;20032;-72
2022/09/02 12:15:39;;;;;;;7.90;4.78;;;;;;;26.55;54.15;101495.69;7379659;19;20018;-72
2022/09/02 12:18:16;;;;;;;10.90;4.65;;;;;;;26.61;54.38;101493.59;7383119;19;20456;-73
2022/09/02 12:21:10;;;;;;;8.75;4.40;;;;;;;26.94;52.22;101502.03;7378006;19;20010;-74
2022/09/02 12:24:20;;;;;;;5.78;4.18;;;;;;;26.78;51.87;101506.31;7378675;19;20034;-72
2022/09/02 12:27:22;;;;;;;6.10;3.97;;;;;;;26.69;51.42;101490.59;7381751;19;20043;-72
2022/09/02 12:29:52;;;;;;;8.30;4.20;;;;;;;26.93;51.29;101484.13;7380002;19;20090;-72
2022/09/02 12:33:06;;;;;;;8.55;4.20;;;;;;;26.61;49.47;101484.66;7382072;19;20019;-72
2022/09/02 12:35:53;;;;;;;7.50;3.67;;;;;;;27.04;49.08;101480.94;7379187;19;20074;-73
2022/09/02 12:38:36;;;;;;;6.55;3.92;;;;;;;27.32;47.99;101467.97;7378813;19;20018;-77
2022/09/02 12:41:26;;;;;;;;;;;;;;;27.43;45.75;101467.47;7383233;19;20090;-78
2022/09/02 12:44:22;;;;;;;7.20;3.30;;;;;;;27.05;43.29;101469.22;7381336;19;20326;-79